sensor_id;sensor_type;location;lat;lon;timestamp;P1;durP1;ratioP1;P2;durP2;ratioP2
14797;SDS011;7490;63.708;20.368;2023-07-08T00:01:16;9.93;;;8.83;;
14797;SDS011;7490;63.708;20.368;2023-07-08T00:03:43;9.73;;;8.73;;
14797;SDS011;7490;63.708;20.368;2023-07-08T00:06:20;10.23;;;8.57;;
14797;SDS011;7490;63.708;20.368;2023-07-08T00:08:47;11.97;;;9.03;;
14797;SDS011;7490;63.708;20.368;2023-07-08T00:11:14;10.93;;;9.43;;
14797;SDS011;7490;63.708;20.368;2023-07-08T00:13:40;10.33;;;8.60;;
14797;SDS011;7490;63.708;20.368;2023-07-08T00:16:16;11.60;;;9.07;;
14797;SDS011;7490;63.708;20.368;2023-07-08T00:18:43;9.27;;;8.07;;
14797;SDS011;7490;63.708;20.368;2023-07-08T00:21:10;9.40;;;8.37;;
14797;SDS011;7490;63.708;20.368;2023-07-08T00:23:44;9.03;;;8.13;;
14797;SDS011;7490;63.708;20.368;2023-07-08T00:26:23;10.10;;;8.97;;
14797;SDS011;7490;63.708;20.368;2023-07-08T00:28:51;10.43;;;8.27;;
14797;SDS011;7490;63.708;20.368;2023-07-08T00:31:17;9.00;;;8.10;;
14797;SDS011;7490;63.708;20.368;2023-07-08T00:33:48;9.40;;;8.40;;
14797;SDS011;7490;63.708;20.368;2023-07-08T00:36:23;9.23;;;8.07;;
14797;SDS011;7490;63.708;20.368;2023-07-08T00:38:52;8.47;;;7.67;;
14797;SDS011;7490;63.708;20.368;2023-07-08T00:41:20;9.23;;;8.23;;
14797;SDS011;7490;63.708;20.368;2023-07-08T00:43:50;11.60;;;8.90;;
14797;SDS011;7490;63.708;20.368;2023-07-08T00:46:20;10.83;;;8.67;;
14797;SDS011;7490;63.708;20.368;2023-07-08T00:51:25;9.40;;;8.40;;
14797;SDS011;7490;63.708;20.368;2023-07-08T00:53:51;9.93;;;8.63;;
14797;SDS011;7490;63.708;20.368;2023-07-08T00:56:22;9.27;;;8.27;;
14797;SDS011;7490;63.708;20.368;2023-07-08T00:59:02;9.50;;;8.60;;
14797;SDS011;7490;63.708;20.368;2023-07-08T01:01:32;10.33;;;8.70;;
14797;SDS011;7490;63.708;20.368;2023-07-08T01:04:11;9.30;;;8.20;;
14797;SDS011;7490;63.708;20.368;2023-07-08T01:06:44;8.67;;;7.87;;
14797;SDS011;7490;63.708;20.368;2023-07-08T01:09:22;8.93;;;8.03;;
14797;SDS011;7490;63.708;20.368;2023-07-08T01:12:10;9.23;;;8.33;;
14797;SDS011;7490;63.708;20.368;2023-07-08T01:14:44;9.60;;;8.30;;
14797;SDS011;7490;63.708;20.368;2023-07-08T01:17:11;8.17;;;7.40;;
14797;SDS011;7490;63.708;20.368;2023-07-08T01:19:39;7.90;;;7.20;;
14797;SDS011;7490;63.708;20.368;2023-07-08T01:22:06;7.80;;;7.00;;
14797;SDS011;7490;63.708;20.368;2023-07-08T01:24:34;10.07;;;7.53;;
14797;SDS011;7490;63.708;20.368;2023-07-08T01:27:02;8.07;;;7.33;;
14797;SDS011;7490;63.708;20.368;2023-07-08T01:29:30;8.23;;;7.23;;
14797;SDS011;7490;63.708;20.368;2023-07-08T01:31:56;7.10;;;6.40;;
14797;SDS011;7490;63.708;20.368;2023-07-08T01:34:23;7.53;;;6.83;;
14797;SDS011;7490;63.708;20.368;2023-07-08T01:36:51;7.90;;;7.10;;
14797;SDS011;7490;63.708;20.368;2023-07-08T01:39:20;8.87;;;6.70;;
14797;SDS011;7490;63.708;20.368;2023-07-08T01:41:47;8.20;;;6.93;;
14797;SDS011;7490;63.708;20.368;2023-07-08T01:44:18;7.17;;;6.47;;
14797;SDS011;7490;63.708;20.368;2023-07-08T01:46:48;7.03;;;6.33;;
14797;SDS011;7490;63.708;20.368;2023-07-08T01:49:15;7.23;;;6.53;;
14797;SDS011;7490;63.708;20.368;2023-07-08T01:51:40;7.80;;;6.90;;
14797;SDS011;7490;63.708;20.368;2023-07-08T01:54:06;6.77;;;6.00;;
14797;SDS011;7490;63.708;20.368;2023-07-08T01:56:32;6.73;;;6.00;;
14797;SDS011;7490;63.708;20.368;2023-07-08T01:58:57;6.07;;;5.47;;
14797;SDS011;7490;63.708;20.368;2023-07-08T02:01:23;5.90;;;5.40;;
14797;SDS011;7490;63.708;20.368;2023-07-08T02:03:48;5.43;;;5.00;;
14797;SDS011;7490;63.708;20.368;2023-07-08T02:06:14;5.83;;;5.23;;
14797;SDS011;7490;63.708;20.368;2023-07-08T02:08:40;5.60;;;5.10;;
14797;SDS011;7490;63.708;20.368;2023-07-08T02:11:05;6.60;;;5.07;;
14797;SDS011;7490;63.708;20.368;2023-07-08T02:13:31;5.73;;;4.83;;
14797;SDS011;7490;63.708;20.368;2023-07-08T02:15:56;5.30;;;4.90;;
14797;SDS011;7490;63.708;20.368;2023-07-08T02:18:22;5.37;;;4.87;;
14797;SDS011;7490;63.708;20.368;2023-07-08T02:20:49;5.20;;;4.70;;
14797;SDS011;7490;63.708;20.368;2023-07-08T02:23:15;5.60;;;4.90;;
14797;SDS011;7490;63.708;20.368;2023-07-08T02:25:41;5.67;;;5.17;;
14797;SDS011;7490;63.708;20.368;2023-07-08T02:28:06;5.43;;;5.03;;
14797;SDS011;7490;63.708;20.368;2023-07-08T02:30:32;5.77;;;5.27;;
14797;SDS011;7490;63.708;20.368;2023-07-08T02:32:58;5.73;;;5.23;;
14797;SDS011;7490;63.708;20.368;2023-07-08T02:35:24;5.80;;;5.30;;
14797;SDS011;7490;63.708;20.368;2023-07-08T02:37:55;5.80;;;5.30;;
14797;SDS011;7490;63.708;20.368;2023-07-08T02:40:22;5.90;;;5.30;;
14797;SDS011;7490;63.708;20.368;2023-07-08T02:42:49;5.30;;;4.87;;
14797;SDS011;7490;63.708;20.368;2023-07-08T02:45:15;5.63;;;5.13;;
14797;SDS011;7490;63.708;20.368;2023-07-08T02:47:42;5.20;;;4.80;;
14797;SDS011;7490;63.708;20.368;2023-07-08T02:50:08;4.90;;;4.50;;
14797;SDS011;7490;63.708;20.368;2023-07-08T02:52:35;4.97;;;4.57;;
14797;SDS011;7490;63.708;20.368;2023-07-08T02:55:01;5.03;;;4.40;;
14797;SDS011;7490;63.708;20.368;2023-07-08T02:57:27;4.00;;;3.70;;
14797;SDS011;7490;63.708;20.368;2023-07-08T02:59:52;4.03;;;3.73;;
14797;SDS011;7490;63.708;20.368;2023-07-08T03:02:18;4.23;;;3.90;;
14797;SDS011;7490;63.708;20.368;2023-07-08T03:04:43;3.70;;;3.40;;
14797;SDS011;7490;63.708;20.368;2023-07-08T03:07:10;3.90;;;3.53;;
14797;SDS011;7490;63.708;20.368;2023-07-08T03:09:37;3.70;;;3.40;;
14797;SDS011;7490;63.708;20.368;2023-07-08T03:12:06;3.77;;;3.47;;
14797;SDS011;7490;63.708;20.368;2023-07-08T03:14:33;3.73;;;3.43;;
14797;SDS011;7490;63.708;20.368;2023-07-08T03:16:59;3.50;;;3.30;;
14797;SDS011;7490;63.708;20.368;2023-07-08T03:19:24;3.30;;;3.10;;
14797;SDS011;7490;63.708;20.368;2023-07-08T03:21:50;3.47;;;3.20;;
14797;SDS011;7490;63.708;20.368;2023-07-08T03:24:17;3.43;;;3.13;;
14797;SDS011;7490;63.708;20.368;2023-07-08T03:26:43;3.30;;;3.10;;
14797;SDS011;7490;63.708;20.368;2023-07-08T03:29:11;3.13;;;2.73;;
14797;SDS011;7490;63.708;20.368;2023-07-08T03:31:42;3.20;;;3.00;;
14797;SDS011;7490;63.708;20.368;2023-07-08T03:34:09;3.60;;;2.70;;
14797;SDS011;7490;63.708;20.368;2023-07-08T03:36:47;2.87;;;2.67;;
14797;SDS011;7490;63.708;20.368;2023-07-08T03:39:14;3.10;;;2.90;;
14797;SDS011;7490;63.708;20.368;2023-07-08T03:41:41;4.30;;;2.83;;
14797;SDS011;7490;63.708;20.368;2023-07-08T03:44:06;2.90;;;2.70;;
14797;SDS011;7490;63.708;20.368;2023-07-08T03:46:32;2.60;;;2.50;;
14797;SDS011;7490;63.708;20.368;2023-07-08T03:48:58;2.97;;;2.77;;
14797;SDS011;7490;63.708;20.368;2023-07-08T03:51:25;3.23;;;3.03;;
14797;SDS011;7490;63.708;20.368;2023-07-08T03:53:54;2.63;;;2.53;;
14797;SDS011;7490;63.708;20.368;2023-07-08T03:56:20;2.70;;;2.60;;
14797;SDS011;7490;63.708;20.368;2023-07-08T03:58:46;2.87;;;2.67;;
14797;SDS011;7490;63.708;20.368;2023-07-08T04:01:17;2.40;;;2.30;;
14797;SDS011;7490;63.708;20.368;2023-07-08T04:03:46;2.90;;;2.70;;
14797;SDS011;7490;63.708;20.368;2023-07-08T04:06:12;2.77;;;2.60;;
14797;SDS011;7490;63.708;20.368;2023-07-08T04:08:38;2.70;;;2.60;;
14797;SDS011;7490;63.708;20.368;2023-07-08T04:11:04;2.70;;;2.60;;
14797;SDS011;7490;63.708;20.368;2023-07-08T04:13:31;3.17;;;2.83;;
14797;SDS011;7490;63.708;20.368;2023-07-08T04:15:58;3.10;;;2.90;;
14797;SDS011;7490;63.708;20.368;2023-07-08T04:18:26;3.17;;;2.97;;
14797;SDS011;7490;63.708;20.368;2023-07-08T04:20:52;3.10;;;2.90;;
14797;SDS011;7490;63.708;20.368;2023-07-08T04:23:18;3.13;;;2.83;;
14797;SDS011;7490;63.708;20.368;2023-07-08T04:25:44;3.07;;;2.87;;
14797;SDS011;7490;63.708;20.368;2023-07-08T04:28:11;2.97;;;2.77;;
14797;SDS011;7490;63.708;20.368;2023-07-08T04:30:37;3.40;;;3.00;;
14797;SDS011;7490;63.708;20.368;2023-07-08T04:33:06;4.07;;;3.10;;
14797;SDS011;7490;63.708;20.368;2023-07-08T04:35:33;3.00;;;2.80;;
14797;SDS011;7490;63.708;20.368;2023-07-08T04:38:04;2.90;;;2.70;;
14797;SDS011;7490;63.708;20.368;2023-07-08T04:40:41;3.10;;;2.90;;
14797;SDS011;7490;63.708;20.368;2023-07-08T04:43:07;2.80;;;2.60;;
14797;SDS011;7490;63.708;20.368;2023-07-08T04:45:35;2.83;;;2.63;;
14797;SDS011;7490;63.708;20.368;2023-07-08T04:48:02;2.80;;;2.60;;
14797;SDS011;7490;63.708;20.368;2023-07-08T04:50:33;2.67;;;2.47;;
14797;SDS011;7490;63.708;20.368;2023-07-08T04:52:59;3.00;;;2.70;;
14797;SDS011;7490;63.708;20.368;2023-07-08T04:55:25;2.93;;;2.27;;
14797;SDS011;7490;63.708;20.368;2023-07-08T04:57:51;2.60;;;2.40;;
14797;SDS011;7490;63.708;20.368;2023-07-08T05:00:17;2.83;;;2.63;;
14797;SDS011;7490;63.708;20.368;2023-07-08T05:02:44;2.80;;;2.60;;
14797;SDS011;7490;63.708;20.368;2023-07-08T05:05:10;2.60;;;2.50;;
14797;SDS011;7490;63.708;20.368;2023-07-08T05:07:36;2.40;;;2.30;;
14797;SDS011;7490;63.708;20.368;2023-07-08T05:10:02;2.80;;;2.60;;
14797;SDS011;7490;63.708;20.368;2023-07-08T05:12:27;2.60;;;2.50;;
14797;SDS011;7490;63.708;20.368;2023-07-08T05:14:53;2.40;;;2.20;;
14797;SDS011;7490;63.708;20.368;2023-07-08T05:17:19;2.30;;;2.20;;
14797;SDS011;7490;63.708;20.368;2023-07-08T05:19:44;2.30;;;2.10;;
14797;SDS011;7490;63.708;20.368;2023-07-08T05:22:11;2.20;;;2.10;;
14797;SDS011;7490;63.708;20.368;2023-07-08T05:24:37;2.33;;;2.23;;
14797;SDS011;7490;63.708;20.368;2023-07-08T05:27:03;2.23;;;2.03;;
14797;SDS011;7490;63.708;20.368;2023-07-08T05:29:29;2.13;;;2.03;;
14797;SDS011;7490;63.708;20.368;2023-07-08T05:31:55;2.17;;;2.00;;
14797;SDS011;7490;63.708;20.368;2023-07-08T05:34:21;2.00;;;1.90;;
14797;SDS011;7490;63.708;20.368;2023-07-08T05:36:46;2.40;;;2.20;;
14797;SDS011;7490;63.708;20.368;2023-07-08T05:39:12;2.20;;;2.10;;
14797;SDS011;7490;63.708;20.368;2023-07-08T05:41:38;2.23;;;2.13;;
14797;SDS011;7490;63.708;20.368;2023-07-08T05:44:04;2.37;;;2.20;;
14797;SDS011;7490;63.708;20.368;2023-07-08T05:46:29;2.10;;;2.00;;
14797;SDS011;7490;63.708;20.368;2023-07-08T05:48:55;2.33;;;2.13;;
14797;SDS011;7490;63.708;20.368;2023-07-08T05:51:20;2.30;;;2.20;;
14797;SDS011;7490;63.708;20.368;2023-07-08T05:53:47;2.40;;;2.20;;
14797;SDS011;7490;63.708;20.368;2023-07-08T05:56:12;2.07;;;1.97;;
14797;SDS011;7490;63.708;20.368;2023-07-08T05:58:38;2.00;;;1.90;;
14797;SDS011;7490;63.708;20.368;2023-07-08T06:01:04;2.20;;;2.00;;
14797;SDS011;7490;63.708;20.368;2023-07-08T06:03:29;1.80;;;1.70;;
14797;SDS011;7490;63.708;20.368;2023-07-08T06:05:55;2.50;;;1.83;;
14797;SDS011;7490;63.708;20.368;2023-07-08T06:08:21;1.97;;;1.87;;
14797;SDS011;7490;63.708;20.368;2023-07-08T06:10:47;1.93;;;1.83;;
14797;SDS011;7490;63.708;20.368;2023-07-08T06:13:13;2.00;;;1.90;;
14797;SDS011;7490;63.708;20.368;2023-07-08T06:15:39;2.30;;;2.10;;
14797;SDS011;7490;63.708;20.368;2023-07-08T06:18:05;2.80;;;2.33;;
14797;SDS011;7490;63.708;20.368;2023-07-08T06:20:30;2.43;;;2.23;;
14797;SDS011;7490;63.708;20.368;2023-07-08T06:22:56;2.50;;;2.30;;
14797;SDS011;7490;63.708;20.368;2023-07-08T06:25:22;2.27;;;2.13;;
14797;SDS011;7490;63.708;20.368;2023-07-08T06:27:47;2.33;;;2.23;;
14797;SDS011;7490;63.708;20.368;2023-07-08T06:30:13;2.33;;;2.20;;
14797;SDS011;7490;63.708;20.368;2023-07-08T06:32:39;2.60;;;2.40;;
14797;SDS011;7490;63.708;20.368;2023-07-08T06:35:05;2.40;;;2.30;;
14797;SDS011;7490;63.708;20.368;2023-07-08T06:37:30;2.40;;;2.20;;
14797;SDS011;7490;63.708;20.368;2023-07-08T06:39:56;2.47;;;2.27;;
14797;SDS011;7490;63.708;20.368;2023-07-08T06:42:22;3.17;;;2.47;;
14797;SDS011;7490;63.708;20.368;2023-07-08T06:44:47;2.47;;;2.37;;
14797;SDS011;7490;63.708;20.368;2023-07-08T06:47:19;2.50;;;2.30;;
14797;SDS011;7490;63.708;20.368;2023-07-08T06:49:46;2.40;;;2.27;;
14797;SDS011;7490;63.708;20.368;2023-07-08T06:52:12;2.20;;;2.10;;
14797;SDS011;7490;63.708;20.368;2023-07-08T06:54:39;2.37;;;2.23;;
14797;SDS011;7490;63.708;20.368;2023-07-08T06:57:05;2.40;;;2.20;;
14797;SDS011;7490;63.708;20.368;2023-07-08T06:59:31;3.10;;;2.30;;
14797;SDS011;7490;63.708;20.368;2023-07-08T07:01:57;2.20;;;2.10;;
14797;SDS011;7490;63.708;20.368;2023-07-08T07:04:23;2.67;;;2.30;;
14797;SDS011;7490;63.708;20.368;2023-07-08T07:06:48;2.30;;;2.20;;
14797;SDS011;7490;63.708;20.368;2023-07-08T07:09:14;2.77;;;2.23;;
14797;SDS011;7490;63.708;20.368;2023-07-08T07:11:40;2.57;;;2.37;;
14797;SDS011;7490;63.708;20.368;2023-07-08T07:14:05;2.40;;;2.30;;
14797;SDS011;7490;63.708;20.368;2023-07-08T07:16:31;2.43;;;2.30;;
14797;SDS011;7490;63.708;20.368;2023-07-08T07:18:56;2.70;;;2.50;;
14797;SDS011;7490;63.708;20.368;2023-07-08T07:21:22;2.47;;;2.33;;
14797;SDS011;7490;63.708;20.368;2023-07-08T07:23:48;2.20;;;2.10;;
14797;SDS011;7490;63.708;20.368;2023-07-08T07:26:14;2.07;;;1.97;;
14797;SDS011;7490;63.708;20.368;2023-07-08T07:28:39;1.90;;;1.80;;
14797;SDS011;7490;63.708;20.368;2023-07-08T07:31:05;2.00;;;1.90;;
14797;SDS011;7490;63.708;20.368;2023-07-08T07:33:32;2.37;;;1.80;;
14797;SDS011;7490;63.708;20.368;2023-07-08T07:35:58;2.00;;;1.90;;
14797;SDS011;7490;63.708;20.368;2023-07-08T07:38:23;1.70;;;1.60;;
14797;SDS011;7490;63.708;20.368;2023-07-08T07:40:53;1.90;;;1.80;;
14797;SDS011;7490;63.708;20.368;2023-07-08T07:43:19;2.47;;;1.90;;
14797;SDS011;7490;63.708;20.368;2023-07-08T07:45:48;2.13;;;1.73;;
14797;SDS011;7490;63.708;20.368;2023-07-08T07:48:15;1.90;;;1.80;;
14797;SDS011;7490;63.708;20.368;2023-07-08T07:50:44;2.10;;;2.00;;
14797;SDS011;7490;63.708;20.368;2023-07-08T07:53:10;2.13;;;1.93;;
14797;SDS011;7490;63.708;20.368;2023-07-08T07:55:36;2.40;;;2.20;;
14797;SDS011;7490;63.708;20.368;2023-07-08T07:58:02;2.40;;;2.20;;
14797;SDS011;7490;63.708;20.368;2023-07-08T08:00:30;1.80;;;1.70;;
14797;SDS011;7490;63.708;20.368;2023-07-08T08:02:55;3.27;;;1.93;;
14797;SDS011;7490;63.708;20.368;2023-07-08T08:05:21;2.63;;;2.00;;
14797;SDS011;7490;63.708;20.368;2023-07-08T08:07:47;2.33;;;2.00;;
14797;SDS011;7490;63.708;20.368;2023-07-08T08:10:13;2.30;;;2.10;;
14797;SDS011;7490;63.708;20.368;2023-07-08T08:12:39;2.23;;;2.13;;
14797;SDS011;7490;63.708;20.368;2023-07-08T08:15:05;2.20;;;2.00;;
14797;SDS011;7490;63.708;20.368;2023-07-08T08:17:31;3.73;;;2.10;;
14797;SDS011;7490;63.708;20.368;2023-07-08T08:19:56;2.10;;;1.90;;
14797;SDS011;7490;63.708;20.368;2023-07-08T08:22:22;2.23;;;2.00;;
14797;SDS011;7490;63.708;20.368;2023-07-08T08:24:48;1.70;;;1.60;;
14797;SDS011;7490;63.708;20.368;2023-07-08T08:27:14;1.77;;;1.67;;
14797;SDS011;7490;63.708;20.368;2023-07-08T08:29:40;2.03;;;1.77;;
14797;SDS011;7490;63.708;20.368;2023-07-08T08:32:06;1.87;;;1.77;;
14797;SDS011;7490;63.708;20.368;2023-07-08T08:34:32;2.10;;;1.50;;
14797;SDS011;7490;63.708;20.368;2023-07-08T08:36:58;1.60;;;1.50;;
14797;SDS011;7490;63.708;20.368;2023-07-08T08:39:23;1.53;;;1.43;;
14797;SDS011;7490;63.708;20.368;2023-07-08T08:41:54;1.67;;;1.57;;
14797;SDS011;7490;63.708;20.368;2023-07-08T08:44:25;1.67;;;1.57;;
14797;SDS011;7490;63.708;20.368;2023-07-08T08:46:58;1.93;;;1.43;;
14797;SDS011;7490;63.708;20.368;2023-07-08T08:49:37;1.90;;;1.73;;
14797;SDS011;7490;63.708;20.368;2023-07-08T08:52:06;1.53;;;1.40;;
14797;SDS011;7490;63.708;20.368;2023-07-08T08:54:32;2.00;;;1.40;;
14797;SDS011;7490;63.708;20.368;2023-07-08T08:59:44;1.93;;;1.30;;
14797;SDS011;7490;63.708;20.368;2023-07-08T09:04:52;1.40;;;1.30;;
14797;SDS011;7490;63.708;20.368;2023-07-08T09:07:18;2.03;;;1.80;;
14797;SDS011;7490;63.708;20.368;2023-07-08T09:09:47;1.30;;;1.13;;
14797;SDS011;7490;63.708;20.368;2023-07-08T09:12:24;1.83;;;1.37;;
14797;SDS011;7490;63.708;20.368;2023-07-08T09:14:52;1.40;;;1.30;;
14797;SDS011;7490;63.708;20.368;2023-07-08T09:17:31;1.70;;;1.60;;
14797;SDS011;7490;63.708;20.368;2023-07-08T09:23:01;1.30;;;1.30;;
14797;SDS011;7490;63.708;20.368;2023-07-08T09:28:03;1.60;;;1.50;;
14797;SDS011;7490;63.708;20.368;2023-07-08T09:30:28;1.73;;;1.57;;
14797;SDS011;7490;63.708;20.368;2023-07-08T09:32:55;1.50;;;1.40;;
14797;SDS011;7490;63.708;20.368;2023-07-08T09:35:23;1.67;;;1.50;;
14797;SDS011;7490;63.708;20.368;2023-07-08T09:37:54;1.40;;;1.30;;
14797;SDS011;7490;63.708;20.368;2023-07-08T09:40:29;1.47;;;1.37;;
14797;SDS011;7490;63.708;20.368;2023-07-08T09:45:41;1.60;;;1.50;;
14797;SDS011;7490;63.708;20.368;2023-07-08T09:48:33;1.77;;;1.40;;
14797;SDS011;7490;63.708;20.368;2023-07-08T09:50:59;1.17;;;1.17;;
14797;SDS011;7490;63.708;20.368;2023-07-08T09:53:25;1.40;;;1.30;;
14797;SDS011;7490;63.708;20.368;2023-07-08T09:55:52;1.40;;;1.30;;
14797;SDS011;7490;63.708;20.368;2023-07-08T09:58:23;1.30;;;1.20;;
14797;SDS011;7490;63.708;20.368;2023-07-08T10:00:54;1.00;;;1.00;;
14797;SDS011;7490;63.708;20.368;2023-07-08T10:03:28;1.30;;;1.20;;
14797;SDS011;7490;63.708;20.368;2023-07-08T10:05:57;1.37;;;1.27;;
14797;SDS011;7490;63.708;20.368;2023-07-08T10:08:27;1.20;;;1.10;;
14797;SDS011;7490;63.708;20.368;2023-07-08T10:13:49;1.30;;;1.20;;
14797;SDS011;7490;63.708;20.368;2023-07-08T10:16:24;1.20;;;1.20;;
14797;SDS011;7490;63.708;20.368;2023-07-08T10:18:53;1.23;;;1.20;;
14797;SDS011;7490;63.708;20.368;2023-07-08T10:21:34;1.40;;;1.30;;
14797;SDS011;7490;63.708;20.368;2023-07-08T10:33:06;1.90;;;1.70;;
14797;SDS011;7490;63.708;20.368;2023-07-08T10:38:13;1.10;;;1.10;;
14797;SDS011;7490;63.708;20.368;2023-07-08T10:40:54;2.53;;;1.43;;
14797;SDS011;7490;63.708;20.368;2023-07-08T10:57:35;1.10;;;1.10;;
14797;SDS011;7490;63.708;20.368;2023-07-08T11:05:41;1.40;;;1.30;;
14797;SDS011;7490;63.708;20.368;2023-07-08T11:08:29;1.30;;;1.20;;
14797;SDS011;7490;63.708;20.368;2023-07-08T11:13:34;2.30;;;1.30;;
14797;SDS011;7490;63.708;20.368;2023-07-08T11:16:11;2.77;;;1.37;;
14797;SDS011;7490;63.708;20.368;2023-07-08T11:21:18;1.20;;;1.10;;
14797;SDS011;7490;63.708;20.368;2023-07-08T11:24:02;1.40;;;1.30;;
14797;SDS011;7490;63.708;20.368;2023-07-08T11:26:38;1.70;;;1.40;;
14797;SDS011;7490;63.708;20.368;2023-07-08T11:29:13;1.53;;;1.20;;
14797;SDS011;7490;63.708;20.368;2023-07-08T11:31:55;1.57;;;1.30;;
14797;SDS011;7490;63.708;20.368;2023-07-08T11:34:22;1.50;;;1.40;;
14797;SDS011;7490;63.708;20.368;2023-07-08T11:36:50;1.47;;;1.37;;
14797;SDS011;7490;63.708;20.368;2023-07-08T11:39:33;1.47;;;1.20;;
14797;SDS011;7490;63.708;20.368;2023-07-08T11:42:17;2.63;;;1.43;;
14797;SDS011;7490;63.708;20.368;2023-07-08T11:44:48;1.43;;;1.33;;
14797;SDS011;7490;63.708;20.368;2023-07-08T11:47:33;1.60;;;1.50;;
14797;SDS011;7490;63.708;20.368;2023-07-08T11:50:04;1.63;;;1.53;;
14797;SDS011;7490;63.708;20.368;2023-07-08T11:58:26;1.57;;;1.37;;
14797;SDS011;7490;63.708;20.368;2023-07-08T12:03:34;1.80;;;1.40;;
14797;SDS011;7490;63.708;20.368;2023-07-08T12:09:27;2.20;;;1.47;;
14797;SDS011;7490;63.708;20.368;2023-07-08T12:12:01;1.40;;;1.30;;
14797;SDS011;7490;63.708;20.368;2023-07-08T12:14:30;2.43;;;1.47;;
14797;SDS011;7490;63.708;20.368;2023-07-08T12:16:57;1.93;;;1.23;;
14797;SDS011;7490;63.708;20.368;2023-07-08T12:19:23;1.67;;;1.57;;
14797;SDS011;7490;63.708;20.368;2023-07-08T12:21:52;1.53;;;1.43;;
14797;SDS011;7490;63.708;20.368;2023-07-08T12:24:18;2.37;;;1.50;;
14797;SDS011;7490;63.708;20.368;2023-07-08T12:26:46;1.77;;;1.60;;
14797;SDS011;7490;63.708;20.368;2023-07-08T12:29:12;2.33;;;1.80;;
14797;SDS011;7490;63.708;20.368;2023-07-08T12:31:39;4.17;;;1.97;;
14797;SDS011;7490;63.708;20.368;2023-07-08T12:34:12;1.63;;;1.53;;
14797;SDS011;7490;63.708;20.368;2023-07-08T12:36:40;1.63;;;1.53;;
14797;SDS011;7490;63.708;20.368;2023-07-08T12:39:08;1.87;;;1.70;;
14797;SDS011;7490;63.708;20.368;2023-07-08T12:41:40;1.70;;;1.60;;
14797;SDS011;7490;63.708;20.368;2023-07-08T12:44:08;1.53;;;1.40;;
14797;SDS011;7490;63.708;20.368;2023-07-08T12:46:44;1.90;;;1.80;;
14797;SDS011;7490;63.708;20.368;2023-07-08T12:49:11;1.57;;;1.47;;
14797;SDS011;7490;63.708;20.368;2023-07-08T12:51:41;2.60;;;1.90;;
14797;SDS011;7490;63.708;20.368;2023-07-08T12:54:10;1.70;;;1.60;;
14797;SDS011;7490;63.708;20.368;2023-07-08T12:56:37;2.00;;;1.83;;
14797;SDS011;7490;63.708;20.368;2023-07-08T12:59:05;1.80;;;1.70;;
14797;SDS011;7490;63.708;20.368;2023-07-08T13:01:32;1.80;;;1.70;;
14797;SDS011;7490;63.708;20.368;2023-07-08T13:04:02;2.90;;;1.70;;
14797;SDS011;7490;63.708;20.368;2023-07-08T13:06:31;3.03;;;1.67;;
14797;SDS011;7490;63.708;20.368;2023-07-08T13:09:11;1.87;;;1.60;;
14797;SDS011;7490;63.708;20.368;2023-07-08T13:11:58;1.73;;;1.50;;
14797;SDS011;7490;63.708;20.368;2023-07-08T13:14:28;3.00;;;1.70;;
14797;SDS011;7490;63.708;20.368;2023-07-08T13:16:54;2.47;;;1.70;;
14797;SDS011;7490;63.708;20.368;2023-07-08T13:19:20;2.83;;;1.43;;
14797;SDS011;7490;63.708;20.368;2023-07-08T13:21:47;4.30;;;1.90;;
14797;SDS011;7490;63.708;20.368;2023-07-08T13:24:13;1.60;;;1.50;;
14797;SDS011;7490;63.708;20.368;2023-07-08T13:26:39;1.90;;;1.70;;
14797;SDS011;7490;63.708;20.368;2023-07-08T13:29:13;1.50;;;1.40;;
14797;SDS011;7490;63.708;20.368;2023-07-08T13:31:43;1.60;;;1.50;;
14797;SDS011;7490;63.708;20.368;2023-07-08T13:34:18;1.70;;;1.43;;
14797;SDS011;7490;63.708;20.368;2023-07-08T13:36:45;1.97;;;1.60;;
14797;SDS011;7490;63.708;20.368;2023-07-08T13:39:27;1.70;;;1.60;;
14797;SDS011;7490;63.708;20.368;2023-07-08T13:41:56;1.70;;;1.60;;
14797;SDS011;7490;63.708;20.368;2023-07-08T13:44:22;1.67;;;1.57;;
14797;SDS011;7490;63.708;20.368;2023-07-08T13:46:55;1.70;;;1.60;;
14797;SDS011;7490;63.708;20.368;2023-07-08T13:52:03;2.70;;;1.60;;
14797;SDS011;7490;63.708;20.368;2023-07-08T13:54:35;1.90;;;1.80;;
14797;SDS011;7490;63.708;20.368;2023-07-08T13:57:08;1.70;;;1.60;;
14797;SDS011;7490;63.708;20.368;2023-07-08T13:59:35;4.00;;;3.50;;
14797;SDS011;7490;63.708;20.368;2023-07-08T14:02:01;2.73;;;2.00;;
14797;SDS011;7490;63.708;20.368;2023-07-08T14:04:37;1.50;;;1.40;;
14797;SDS011;7490;63.708;20.368;2023-07-08T14:07:03;2.97;;;1.60;;
14797;SDS011;7490;63.708;20.368;2023-07-08T14:09:43;1.73;;;1.40;;
14797;SDS011;7490;63.708;20.368;2023-07-08T14:12:09;1.80;;;1.60;;
14797;SDS011;7490;63.708;20.368;2023-07-08T14:14:35;1.40;;;1.30;;
14797;SDS011;7490;63.708;20.368;2023-07-08T14:17:01;1.37;;;1.23;;
14797;SDS011;7490;63.708;20.368;2023-07-08T14:19:28;1.47;;;1.27;;
14797;SDS011;7490;63.708;20.368;2023-07-08T14:22:01;1.40;;;1.23;;
14797;SDS011;7490;63.708;20.368;2023-07-08T14:24:39;1.30;;;1.20;;
14797;SDS011;7490;63.708;20.368;2023-07-08T14:27:08;1.33;;;1.27;;
14797;SDS011;7490;63.708;20.368;2023-07-08T14:29:37;1.33;;;1.23;;
14797;SDS011;7490;63.708;20.368;2023-07-08T14:32:04;1.60;;;1.50;;
14797;SDS011;7490;63.708;20.368;2023-07-08T14:34:36;1.60;;;1.50;;
14797;SDS011;7490;63.708;20.368;2023-07-08T14:37:01;1.20;;;1.20;;
14797;SDS011;7490;63.708;20.368;2023-07-08T14:39:27;1.60;;;1.50;;
14797;SDS011;7490;63.708;20.368;2023-07-08T14:41:53;1.40;;;1.30;;
14797;SDS011;7490;63.708;20.368;2023-07-08T14:44:22;1.60;;;1.40;;
14797;SDS011;7490;63.708;20.368;2023-07-08T14:46:49;1.73;;;1.50;;
14797;SDS011;7490;63.708;20.368;2023-07-08T14:49:16;1.57;;;1.47;;
14797;SDS011;7490;63.708;20.368;2023-07-08T14:51:43;1.60;;;1.50;;
14797;SDS011;7490;63.708;20.368;2023-07-08T14:54:09;1.57;;;1.47;;
14797;SDS011;7490;63.708;20.368;2023-07-08T14:56:35;1.73;;;1.60;;
14797;SDS011;7490;63.708;20.368;2023-07-08T14:59:01;1.77;;;1.40;;
14797;SDS011;7490;63.708;20.368;2023-07-08T15:01:27;1.90;;;1.60;;
14797;SDS011;7490;63.708;20.368;2023-07-08T15:03:55;1.33;;;1.23;;
14797;SDS011;7490;63.708;20.368;2023-07-08T15:06:21;1.50;;;1.40;;
14797;SDS011;7490;63.708;20.368;2023-07-08T15:08:47;1.23;;;1.20;;
14797;SDS011;7490;63.708;20.368;2023-07-08T15:11:13;1.40;;;1.30;;
14797;SDS011;7490;63.708;20.368;2023-07-08T15:13:39;1.60;;;1.50;;
14797;SDS011;7490;63.708;20.368;2023-07-08T15:16:17;1.50;;;1.40;;
14797;SDS011;7490;63.708;20.368;2023-07-08T15:18:44;1.80;;;1.60;;
14797;SDS011;7490;63.708;20.368;2023-07-08T15:21:11;1.20;;;1.20;;
14797;SDS011;7490;63.708;20.368;2023-07-08T15:23:37;1.10;;;1.10;;
14797;SDS011;7490;63.708;20.368;2023-07-08T15:26:03;1.30;;;1.30;;
14797;SDS011;7490;63.708;20.368;2023-07-08T15:31:08;1.60;;;1.20;;
14797;SDS011;7490;63.708;20.368;2023-07-08T15:33:38;1.37;;;1.30;;
14797;SDS011;7490;63.708;20.368;2023-07-08T15:36:04;1.00;;;1.00;;
14797;SDS011;7490;63.708;20.368;2023-07-08T15:38:29;1.20;;;1.10;;
14797;SDS011;7490;63.708;20.368;2023-07-08T15:40:55;1.70;;;0.90;;
14797;SDS011;7490;63.708;20.368;2023-07-08T15:43:21;1.33;;;1.17;;
14797;SDS011;7490;63.708;20.368;2023-07-08T15:45:46;1.37;;;1.33;;
14797;SDS011;7490;63.708;20.368;2023-07-08T15:48:13;2.50;;;1.30;;
14797;SDS011;7490;63.708;20.368;2023-07-08T15:50:40;0.90;;;0.90;;
14797;SDS011;7490;63.708;20.368;2023-07-08T15:53:07;0.90;;;0.90;;
14797;SDS011;7490;63.708;20.368;2023-07-08T15:55:36;1.00;;;1.00;;
14797;SDS011;7490;63.708;20.368;2023-07-08T16:00:56;1.00;;;1.00;;
14797;SDS011;7490;63.708;20.368;2023-07-08T16:05:53;0.80;;;0.80;;
14797;SDS011;7490;63.708;20.368;2023-07-08T16:08:20;0.80;;;0.80;;
14797;SDS011;7490;63.708;20.368;2023-07-08T16:10:51;0.77;;;0.77;;
14797;SDS011;7490;63.708;20.368;2023-07-08T16:13:26;0.80;;;0.80;;